createdAt,value
2018-07-19T00:01:56.683Z,16.80
2018-07-19T00:04:23.702Z,16.79
2018-07-19T00:06:50.690Z,16.77
2018-07-19T00:09:17.678Z,16.77
2018-07-19T00:11:44.696Z,16.76
2018-07-19T00:14:11.705Z,16.75
2018-07-19T00:16:38.696Z,16.74
2018-07-19T00:19:05.732Z,16.72
2018-07-19T00:21:32.692Z,16.67
2018-07-19T00:24:00.051Z,16.66
2018-07-19T00:26:27.025Z,16.63
2018-07-19T00:28:54.045Z,16.60
2018-07-19T00:31:21.135Z,16.58
2018-07-19T00:33:48.175Z,16.58
2018-07-19T00:36:15.144Z,16.57
2018-07-19T00:38:42.158Z,16.55
2018-07-19T00:41:09.188Z,16.52
2018-07-19T00:43:36.356Z,16.53
2018-07-19T00:46:03.370Z,16.50
2018-07-19T00:48:30.324Z,16.48
2018-07-19T00:50:57.339Z,16.47
2018-07-19T00:53:24.356Z,16.45
2018-07-19T00:55:51.481Z,16.43
2018-07-19T00:58:18.476Z,16.36
2018-07-19T01:00:45.488Z,16.34
2018-07-19T01:03:12.604Z,16.31
2018-07-19T01:05:39.649Z,16.28
2018-07-19T01:08:06.665Z,16.27
2018-07-19T01:10:33.652Z,16.28
2018-07-19T01:13:00.645Z,16.27
2018-07-19T01:15:27.693Z,16.25
2018-07-19T01:17:54.667Z,16.19
2018-07-19T01:20:21.653Z,16.16
2018-07-19T01:22:48.940Z,16.14
2018-07-19T01:25:16.197Z,16.13
2018-07-19T01:27:43.233Z,16.15
2018-07-19T01:30:10.257Z,16.11
2018-07-19T01:32:37.318Z,16.08
2018-07-19T01:35:04.529Z,16.10
2018-07-19T01:37:31.549Z,16.09
2018-07-19T01:39:58.529Z,16.09
2018-07-19T01:42:32.173Z,16.06
2018-07-19T01:44:59.220Z,16.04
2018-07-19T01:47:26.252Z,16.04
2018-07-19T01:49:53.258Z,16.03
2018-07-19T01:52:20.236Z,15.99
2018-07-19T01:54:47.264Z,15.95
2018-07-19T01:57:15.476Z,15.93
2018-07-19T01:59:43.097Z,15.92
2018-07-19T02:02:10.320Z,15.93
2018-07-19T02:04:37.309Z,15.88
2018-07-19T02:07:04.901Z,15.87
2018-07-19T02:09:31.949Z,15.85
2018-07-19T02:11:59.263Z,15.83
2018-07-19T02:14:26.264Z,15.77
2018-07-19T02:16:53.529Z,15.77
2018-07-19T02:19:20.565Z,15.74
2018-07-19T02:21:47.605Z,15.71
2018-07-19T02:24:14.712Z,15.68
2018-07-19T02:26:41.786Z,15.67
2018-07-19T02:29:09.429Z,15.66
2018-07-19T02:31:36.621Z,15.62
2018-07-19T02:34:04.181Z,15.59
2018-07-19T02:36:31.261Z,15.56
2018-07-19T02:38:58.464Z,15.55
2018-07-19T02:41:25.541Z,15.52
2018-07-19T02:43:52.631Z,15.48
2018-07-19T02:46:19.658Z,15.45
2018-07-19T02:48:46.673Z,15.45
2018-07-19T02:51:13.821Z,15.44
2018-07-19T02:53:40.965Z,15.44
2018-07-19T02:56:08.153Z,15.43
2018-07-19T02:58:35.605Z,15.44
2018-07-19T03:01:02.626Z,15.43
2018-07-19T03:03:29.669Z,15.44
2018-07-19T03:05:56.633Z,15.44
2018-07-19T03:08:23.649Z,15.41
2018-07-19T03:10:50.761Z,15.41
2018-07-19T03:13:17.736Z,15.38
2018-07-19T03:15:44.737Z,15.37
2018-07-19T03:18:11.728Z,15.34
2018-07-19T03:20:39.274Z,15.33
2018-07-19T03:23:06.349Z,15.32
2018-07-19T03:25:33.425Z,15.33
2018-07-19T03:28:00.409Z,15.31
2018-07-19T03:30:27.408Z,15.33
2018-07-19T03:32:54.507Z,15.33
2018-07-19T03:35:21.604Z,15.32
2018-07-19T03:37:48.613Z,15.30
2018-07-19T03:40:15.631Z,15.30
2018-07-19T03:42:42.709Z,15.29
2018-07-19T03:45:10.381Z,15.31
2018-07-19T03:47:37.479Z,15.32
2018-07-19T03:50:04.532Z,15.29
2018-07-19T03:52:31.616Z,15.29
2018-07-19T03:54:58.848Z,15.29
2018-07-19T03:57:25.898Z,15.30
2018-07-19T03:59:53.650Z,15.30
2018-07-19T04:02:20.669Z,15.33
2018-07-19T04:04:47.672Z,15.35
2018-07-19T04:07:14.696Z,15.38
2018-07-19T04:09:41.690Z,15.41
2018-07-19T04:12:08.830Z,15.42
2018-07-19T04:14:35.850Z,15.49
2018-07-19T04:17:02.947Z,15.48
2018-07-19T04:19:29.905Z,15.51
2018-07-19T04:21:56.975Z,15.53
2018-07-19T04:24:24.340Z,15.59
2018-07-19T04:26:51.385Z,15.62
2018-07-19T04:29:19.419Z,15.68
2018-07-19T04:31:46.454Z,15.70
2018-07-19T04:34:13.497Z,15.74
2018-07-19T04:36:40.650Z,15.80
2018-07-19T04:39:08.633Z,15.86
2018-07-19T04:41:35.663Z,15.91
2018-07-19T04:44:02.640Z,15.90
2018-07-19T04:46:29.748Z,15.96
2018-07-19T04:48:56.753Z,15.98
2018-07-19T04:51:23.749Z,16.00
2018-07-19T04:53:50.773Z,16.06
2018-07-19T04:56:17.807Z,16.11
2018-07-19T04:58:44.818Z,16.13
2018-07-19T05:01:11.828Z,16.16
2018-07-19T05:03:38.848Z,16.20
2018-07-19T05:06:05.934Z,16.26
2018-07-19T05:08:32.957Z,16.31
2018-07-19T05:10:59.976Z,16.36
2018-07-19T05:13:26.997Z,16.41
2018-07-19T05:15:54.168Z,16.40
2018-07-19T05:18:21.245Z,16.45
2018-07-19T05:20:48.313Z,16.48
2018-07-19T05:23:15.496Z,16.49
2018-07-19T05:25:43.663Z,16.52
2018-07-19T05:28:10.709Z,16.55
2018-07-19T05:30:37.701Z,16.59
2018-07-19T05:33:04.795Z,16.61
2018-07-19T05:35:31.841Z,16.60
2018-07-19T05:37:58.845Z,16.64
2018-07-19T05:40:25.980Z,16.65
2018-07-19T05:42:53.200Z,16.70
2018-07-19T05:45:20.261Z,16.70
2018-07-19T05:47:47.281Z,16.75
2018-07-19T05:50:14.274Z,16.81
2018-07-19T05:52:41.320Z,16.86
2018-07-19T05:55:08.436Z,16.90
2018-07-19T05:57:35.589Z,17.00
2018-07-19T06:00:02.669Z,17.06
2018-07-19T06:02:29.668Z,17.12
2018-07-19T06:04:56.727Z,17.16
2018-07-19T06:07:23.733Z,17.15
2018-07-19T06:09:50.730Z,17.21
2018-07-19T06:12:17.747Z,17.28
2018-07-19T06:14:44.733Z,17.38
2018-07-19T06:17:11.813Z,17.46
2018-07-19T06:19:38.848Z,17.53
2018-07-19T06:22:05.895Z,17.58
2018-07-19T06:24:32.955Z,17.64
2018-07-19T06:26:59.985Z,17.74
2018-07-19T06:29:26.949Z,17.82
2018-07-19T06:31:54.285Z,17.91
2018-07-19T06:34:21.308Z,17.98
2018-07-19T06:36:48.356Z,18.03
2018-07-19T06:39:15.485Z,18.00
2018-07-19T06:41:42.497Z,18.05
2018-07-19T06:44:09.524Z,18.10
2018-07-19T06:46:36.617Z,18.20
2018-07-19T06:49:03.674Z,18.28
2018-07-19T06:51:30.711Z,18.39
2018-07-19T06:53:57.709Z,18.48
2018-07-19T06:56:24.717Z,18.57
2018-07-19T06:58:51.762Z,18.66
2018-07-19T07:01:18.797Z,18.71
2018-07-19T07:03:45.789Z,18.79
2018-07-19T07:06:12.908Z,18.85
2018-07-19T07:08:39.925Z,18.93
2018-07-19T07:11:07.146Z,18.98
2018-07-19T07:13:34.189Z,19.06
2018-07-19T07:16:01.205Z,19.12
2018-07-19T07:18:28.240Z,19.15
2018-07-19T07:20:55.205Z,19.21
2018-07-19T07:23:22.269Z,19.28
2018-07-19T07:25:53.840Z,19.37
2018-07-19T07:28:22.196Z,19.42
2018-07-19T07:30:49.097Z,19.52
2018-07-19T07:33:16.811Z,19.61
2018-07-19T07:35:44.357Z,19.70
2018-07-19T07:38:11.493Z,19.81
2018-07-19T07:40:38.526Z,19.88
2018-07-19T07:43:07.121Z,19.90
2018-07-19T07:45:34.277Z,19.94
2018-07-19T07:48:01.465Z,19.98
2018-07-19T07:50:29.093Z,20.07
2018-07-19T07:52:56.181Z,20.12
2018-07-19T07:55:23.213Z,20.22
2018-07-19T07:57:50.345Z,20.28
2018-07-19T08:00:17.405Z,20.38
2018-07-19T08:02:44.549Z,20.43
2018-07-19T08:05:11.543Z,20.49
2018-07-19T08:07:38.560Z,20.61
2018-07-19T08:10:05.570Z,20.65
2018-07-19T08:12:32.593Z,20.69
2018-07-19T08:14:59.632Z,20.77
2018-07-19T08:17:26.677Z,20.79
2018-07-19T08:19:53.694Z,20.84
2018-07-19T08:22:20.717Z,20.89
2018-07-19T08:24:47.724Z,20.93
2018-07-19T08:27:14.745Z,21.05
2018-07-19T08:29:41.748Z,21.05
2018-07-19T08:32:08.833Z,21.11
2018-07-19T08:34:35.893Z,21.16
2018-07-19T08:37:02.941Z,21.21
2018-07-19T08:39:29.937Z,21.27
2018-07-19T08:41:57.009Z,21.37
2018-07-19T08:44:23.977Z,21.47
2018-07-19T08:46:51.005Z,21.52
2018-07-19T08:49:18.021Z,21.60
2018-07-19T08:51:45.026Z,21.59
2018-07-19T08:54:12.054Z,21.59
2018-07-19T08:56:39.165Z,21.67
2018-07-19T08:59:06.192Z,21.76
2018-07-19T09:01:33.219Z,21.77
2018-07-19T09:04:00.220Z,21.80
2018-07-19T09:06:27.273Z,21.85
2018-07-19T09:08:54.273Z,21.94
2018-07-19T09:11:21.246Z,22.06
2018-07-19T09:13:48.236Z,22.06
2018-07-19T09:16:15.337Z,22.11
2018-07-19T09:18:42.413Z,22.21
2018-07-19T09:21:09.397Z,22.28
2018-07-19T09:23:36.449Z,22.35
2018-07-19T09:26:03.520Z,22.42
2018-07-19T09:28:30.540Z,22.51
2018-07-19T09:30:57.529Z,22.60
2018-07-19T09:33:24.541Z,22.59
2018-07-19T09:35:51.856Z,22.65
2018-07-19T09:38:19.297Z,22.72
2018-07-19T09:40:46.329Z,22.75
2018-07-19T09:43:13.817Z,22.82
2018-07-19T09:45:40.941Z,22.87
2018-07-19T09:48:07.941Z,22.97
2018-07-19T09:50:34.967Z,23.05
2018-07-19T09:53:02.079Z,23.06
2018-07-19T09:55:29.117Z,23.16
2018-07-19T09:57:56.259Z,23.24
2018-07-19T10:00:28.980Z,23.33
2018-07-19T10:02:55.981Z,23.36
2018-07-19T10:05:23.045Z,23.30
2018-07-19T10:07:50.062Z,23.37
2018-07-19T10:10:17.106Z,23.40
2018-07-19T10:12:44.713Z,23.40
2018-07-19T10:15:11.689Z,23.47
2018-07-19T10:17:38.852Z,23.59
2018-07-19T10:20:05.869Z,23.71
2018-07-19T10:22:32.884Z,23.89
2018-07-19T10:24:59.869Z,24.05
2018-07-19T10:27:26.896Z,24.18
2018-07-19T10:29:53.945Z,24.34
2018-07-19T10:32:21.751Z,24.43
2018-07-19T10:34:48.591Z,24.46
2018-07-19T10:37:15.592Z,24.60
2018-07-19T10:39:43.062Z,24.77
2018-07-19T10:42:10.073Z,24.90
2018-07-19T10:44:37.125Z,24.92
2018-07-19T10:47:04.177Z,25.00
2018-07-19T10:49:31.224Z,25.00
2018-07-19T10:51:58.208Z,25.09
2018-07-19T10:54:25.189Z,25.09
2018-07-19T10:56:52.185Z,24.98
2018-07-19T10:59:19.172Z,25.04
2018-07-19T11:01:46.205Z,25.10
2018-07-19T11:04:13.333Z,25.16
2018-07-19T11:06:40.365Z,25.21
2018-07-19T11:09:07.882Z,25.36
2018-07-19T11:11:34.885Z,25.49
2018-07-19T11:14:01.906Z,25.53
2018-07-19T11:16:29.029Z,25.57
2018-07-19T11:18:56.034Z,25.42
2018-07-19T11:21:23.021Z,25.50
2018-07-19T11:23:50.076Z,25.54
2018-07-19T11:26:17.648Z,25.57
2018-07-19T11:28:44.643Z,25.62
2018-07-19T11:31:11.633Z,25.66
2018-07-19T11:33:38.596Z,25.43
2018-07-19T11:36:06.357Z,25.58
2018-07-19T11:38:33.381Z,25.62
2018-07-19T11:41:00.496Z,25.22
2018-07-19T11:43:27.457Z,25.19
2018-07-19T11:45:54.470Z,25.30
2018-07-19T11:48:22.164Z,25.47
2018-07-19T11:50:50.439Z,25.41
2018-07-19T11:53:17.412Z,25.45
2018-07-19T11:55:44.442Z,25.23
2018-07-19T11:58:11.515Z,25.18
2018-07-19T12:00:38.521Z,25.42
2018-07-19T12:03:05.505Z,25.63
2018-07-19T12:05:32.465Z,25.55
2018-07-19T12:07:59.576Z,25.46
2018-07-19T12:10:26.573Z,25.50
2018-07-19T12:12:53.597Z,25.55
2018-07-19T12:15:20.581Z,25.77
2018-07-19T12:17:47.613Z,25.97
2018-07-19T12:20:14.637Z,26.06
2018-07-19T12:22:41.849Z,26.08
2018-07-19T12:25:08.865Z,26.24
2018-07-19T12:27:35.881Z,26.37
2018-07-19T12:30:03.225Z,26.52
2018-07-19T12:32:30.297Z,26.54
2018-07-19T12:34:57.279Z,26.58
2018-07-19T12:37:24.269Z,26.52
2018-07-19T12:39:51.373Z,26.43
2018-07-19T12:42:18.345Z,26.21
2018-07-19T12:44:45.395Z,26.23
2018-07-19T12:47:13.085Z,26.19
2018-07-19T12:49:40.189Z,26.23
2018-07-19T12:52:07.181Z,26.14
2018-07-19T12:54:34.172Z,26.32
2018-07-19T12:57:01.443Z,26.29
2018-07-19T12:59:28.452Z,26.36
2018-07-19T13:01:55.432Z,26.49
2018-07-19T13:04:22.388Z,26.57
2018-07-19T13:06:49.742Z,26.43
2018-07-19T13:09:16.717Z,26.37
2018-07-19T13:11:43.673Z,26.30
2018-07-19T13:14:10.661Z,26.34
2018-07-19T13:16:37.619Z,26.41
2018-07-19T13:19:04.629Z,26.21
2018-07-19T13:21:31.704Z,26.26
2018-07-19T13:23:58.961Z,26.35
2018-07-19T13:26:26.117Z,26.43
2018-07-19T13:28:53.976Z,26.58
2018-07-19T13:31:21.029Z,26.35
2018-07-19T13:33:48.029Z,26.20
2018-07-19T13:36:15.137Z,26.13
2018-07-19T13:38:42.166Z,26.12
2018-07-19T13:41:09.157Z,26.24
2018-07-19T13:43:36.165Z,26.37
2018-07-19T13:46:03.181Z,26.31
2018-07-19T13:48:30.800Z,26.39
2018-07-19T13:50:57.753Z,26.56
2018-07-19T13:53:39.078Z,26.68
2018-07-19T13:56:06.973Z,26.69
2018-07-19T13:58:34.930Z,26.72
2018-07-19T14:01:02.077Z,26.65
2018-07-19T14:03:29.574Z,26.53
2018-07-19T14:05:56.589Z,26.44
2018-07-19T14:08:24.026Z,26.42
2018-07-19T14:10:51.058Z,26.38
2018-07-19T14:13:18.061Z,26.40
2018-07-19T14:15:45.165Z,26.46
2018-07-19T14:18:12.693Z,26.49
2018-07-19T14:20:39.678Z,26.43
2018-07-19T14:23:06.818Z,26.42
2018-07-19T14:25:33.800Z,26.44
2018-07-19T14:28:01.198Z,26.48
2018-07-19T14:30:28.197Z,26.38
2018-07-19T14:32:55.193Z,26.30
2018-07-19T14:35:22.173Z,26.15
2018-07-19T14:37:49.522Z,25.94
2018-07-19T14:40:16.526Z,25.88
2018-07-19T14:42:43.504Z,25.83
2018-07-19T14:45:10.516Z,25.80
2018-07-19T14:47:37.597Z,25.75
2018-07-19T14:50:04.717Z,25.69
2018-07-19T14:52:31.713Z,25.67
2018-07-19T14:54:58.917Z,25.65
2018-07-19T14:57:25.929Z,25.60
2018-07-19T14:59:52.973Z,25.49
2018-07-19T15:02:19.997Z,25.51
2018-07-19T15:04:47.039Z,25.50
2018-07-19T15:07:14.116Z,25.54
2018-07-19T15:09:41.077Z,25.54
2018-07-19T15:12:08.144Z,25.46
2018-07-19T15:14:35.129Z,25.46
2018-07-19T15:17:02.117Z,25.51
2018-07-19T15:19:29.097Z,25.53
2018-07-19T15:21:56.078Z,25.53
2018-07-19T15:24:23.058Z,25.45
2018-07-19T15:26:50.061Z,25.34
2018-07-19T15:29:17.101Z,25.39
2018-07-19T15:31:44.080Z,25.30
2018-07-19T15:34:11.106Z,25.30
2018-07-19T15:36:38.085Z,25.36
2018-07-19T15:39:06.416Z,25.33
2018-07-19T15:41:33.553Z,25.33
2018-07-19T15:44:00.584Z,25.29
2018-07-19T15:46:27.560Z,25.30
2018-07-19T15:48:54.931Z,25.17
2018-07-19T15:51:21.962Z,25.12
2018-07-19T15:53:49.014Z,25.15
2018-07-19T15:56:15.996Z,25.15
2018-07-19T15:58:43.017Z,25.20
2018-07-19T16:01:10.037Z,25.20
2018-07-19T16:03:38.162Z,25.16
2018-07-19T16:06:05.233Z,25.11
2018-07-19T16:08:32.460Z,25.05
2018-07-19T16:10:59.520Z,25.05
2018-07-19T16:13:26.487Z,25.04
2018-07-19T16:15:54.466Z,25.05
2018-07-19T16:18:21.455Z,24.98
2018-07-19T16:20:48.478Z,25.00
2018-07-19T16:23:15.433Z,24.99
2018-07-19T16:25:42.468Z,24.99
2018-07-19T16:28:09.456Z,24.95
2018-07-19T16:30:36.570Z,24.87
2018-07-19T16:33:03.696Z,24.86
2018-07-19T16:35:30.711Z,24.87
2018-07-19T16:37:57.745Z,24.86
2018-07-19T16:40:24.746Z,24.83
2018-07-19T16:42:51.812Z,24.83
2018-07-19T16:45:18.760Z,24.81
2018-07-19T16:47:45.781Z,24.77
2018-07-19T16:50:12.788Z,24.75
2018-07-19T16:52:39.817Z,24.76
2018-07-19T16:55:06.973Z,24.74
2018-07-19T16:57:34.010Z,24.70
2018-07-19T17:00:00.992Z,24.69
2018-07-19T17:02:28.022Z,24.68
2018-07-19T17:04:55.012Z,24.69
2018-07-19T17:07:22.003Z,24.71
2018-07-19T17:09:49.016Z,24.70
2018-07-19T17:12:16.125Z,24.68
2018-07-19T17:14:43.092Z,24.69
2018-07-19T17:17:10.110Z,24.71
2018-07-19T17:19:39.176Z,24.72
2018-07-19T17:22:06.177Z,24.75
2018-07-19T17:24:33.144Z,24.74
2018-07-19T17:27:00.181Z,24.69
2018-07-19T17:29:27.317Z,24.69
2018-07-19T17:31:54.321Z,24.74
2018-07-19T17:34:21.481Z,24.67
2018-07-19T17:36:48.446Z,24.67
2018-07-19T17:39:15.468Z,24.74
2018-07-19T17:41:42.524Z,24.69
2018-07-19T17:44:09.624Z,24.63
2018-07-19T17:46:36.849Z,24.63
2018-07-19T17:49:04.434Z,24.56
2018-07-19T17:51:31.556Z,24.53
2018-07-19T17:53:58.549Z,24.53
2018-07-19T17:56:25.512Z,24.54
2018-07-19T17:58:52.476Z,24.62
2018-07-19T18:01:19.664Z,24.69
2018-07-19T18:03:46.903Z,24.81
2018-07-19T18:06:13.997Z,24.85
2018-07-19T18:08:41.080Z,24.84
2018-07-19T18:11:08.177Z,24.90
2018-07-19T18:13:35.985Z,24.93
2018-07-19T18:16:03.117Z,24.94
2018-07-19T18:18:30.713Z,25.04
2018-07-19T18:20:57.784Z,25.02
2018-07-19T18:23:24.813Z,25.02
2018-07-19T18:25:51.821Z,24.94
2018-07-19T18:28:18.841Z,24.88
2018-07-19T18:30:45.910Z,24.74
2018-07-19T18:33:13.181Z,24.64
2018-07-19T18:35:40.297Z,24.42
2018-07-19T18:38:07.305Z,24.27
2018-07-19T18:40:34.629Z,24.08
2018-07-19T18:43:01.633Z,23.87
2018-07-19T18:45:28.601Z,23.75
2018-07-19T18:47:55.597Z,23.60
2018-07-19T18:50:22.964Z,23.41
2018-07-19T18:52:49.938Z,23.25
2018-07-19T18:55:16.969Z,23.11
2018-07-19T18:57:43.948Z,22.98
2018-07-19T19:00:10.993Z,22.89
2018-07-19T19:02:38.091Z,22.76
2018-07-19T19:05:05.138Z,22.66
2018-07-19T19:07:32.258Z,22.61
2018-07-19T19:10:00.022Z,22.51
2018-07-19T19:12:26.976Z,22.44
2018-07-19T19:14:53.973Z,22.34
2018-07-19T19:17:20.957Z,22.27
2018-07-19T19:19:47.999Z,22.21
2018-07-19T19:22:14.993Z,22.03
2018-07-19T19:24:42.383Z,22.04
2018-07-19T19:27:09.408Z,21.99
2018-07-19T19:29:36.432Z,21.93
2018-07-19T19:32:03.542Z,21.84
2018-07-19T19:34:30.605Z,21.76
2018-07-19T19:36:57.729Z,21.70
2018-07-19T19:39:24.865Z,21.62
2018-07-19T19:41:52.849Z,21.55
2018-07-19T19:44:20.287Z,21.49
2018-07-19T19:46:47.301Z,21.43
2018-07-19T19:49:14.277Z,21.35
2018-07-19T19:51:41.302Z,21.29
2018-07-19T19:54:08.264Z,21.24
2018-07-19T19:56:35.286Z,21.17
2018-07-19T19:59:02.302Z,21.10
2018-07-19T20:01:29.332Z,21.05
2018-07-19T20:03:56.365Z,21.00
2018-07-19T20:06:23.589Z,20.95
2018-07-19T20:08:50.576Z,20.89
2018-07-19T20:11:17.585Z,20.84
2018-07-19T20:13:44.573Z,20.78
2018-07-19T20:16:11.589Z,20.73
2018-07-19T20:18:38.590Z,20.69
2018-07-19T20:21:05.762Z,20.64
2018-07-19T20:23:32.789Z,20.59
2018-07-19T20:25:59.778Z,20.54
2018-07-19T20:28:26.816Z,20.48
2018-07-19T20:30:53.853Z,20.44
2018-07-19T20:33:20.909Z,20.39
2018-07-19T20:35:48.005Z,20.32
2018-07-19T20:38:15.141Z,20.30
2018-07-19T20:40:42.951Z,20.26
2018-07-19T20:43:09.933Z,20.22
2018-07-19T20:45:36.984Z,20.18
2018-07-19T20:50:45.905Z,20.10
2018-07-19T20:53:12.926Z,20.06
2018-07-19T20:55:39.949Z,20.03
2018-07-19T20:58:06.941Z,19.96
2018-07-19T21:00:33.957Z,19.88
2018-07-19T21:03:00.997Z,19.81
2018-07-19T21:05:28.272Z,19.77
2018-07-19T21:07:55.253Z,19.75
2018-07-19T21:10:22.253Z,19.70
2018-07-19T21:12:49.285Z,19.64
2018-07-19T21:15:16.241Z,19.59
2018-07-19T21:17:43.257Z,19.56
2018-07-19T21:20:10.266Z,19.50
2018-07-19T21:22:37.313Z,19.47
2018-07-19T21:25:04.845Z,19.44
2018-07-19T21:27:32.601Z,19.40
2018-07-19T21:29:59.800Z,19.39
2018-07-19T21:32:26.788Z,19.34
2018-07-19T21:34:53.832Z,19.28
2018-07-19T21:37:20.817Z,19.23
2018-07-19T21:39:47.849Z,19.17
2018-07-19T21:42:14.997Z,19.11
2018-07-19T21:44:41.961Z,19.07
2018-07-19T21:47:08.948Z,19.03
2018-07-19T21:49:35.967Z,18.98
2018-07-19T21:52:02.978Z,18.92
2018-07-19T21:54:29.957Z,18.92
2018-07-19T21:56:56.956Z,18.89
2018-07-19T21:59:23.937Z,18.86
2018-07-19T22:01:50.908Z,18.85
2018-07-19T22:04:17.876Z,18.84
2018-07-19T22:06:45.154Z,18.82
2018-07-19T22:09:12.745Z,18.80
2018-07-19T22:11:39.753Z,18.79
2018-07-19T22:14:07.042Z,18.76
2018-07-19T22:16:34.268Z,18.75
2018-07-19T22:19:01.458Z,18.70
2018-07-19T22:21:28.476Z,18.70
2018-07-19T22:23:55.769Z,18.70
2018-07-19T22:26:22.881Z,18.69
2018-07-19T22:28:49.904Z,18.66
2018-07-19T22:31:17.325Z,18.63
2018-07-19T22:33:44.693Z,18.61
2018-07-19T22:36:11.677Z,18.58
2018-07-19T22:38:39.225Z,18.57
2018-07-19T22:41:06.697Z,18.56
2018-07-19T22:43:33.749Z,18.54
2018-07-19T22:46:00.772Z,18.53
2018-07-19T22:48:27.746Z,18.52
2018-07-19T22:50:54.837Z,18.47
2018-07-19T22:53:21.869Z,18.43
2018-07-19T22:55:50.608Z,18.39
2018-07-19T22:58:17.676Z,18.34
2018-07-19T23:00:44.685Z,18.30
2018-07-19T23:03:11.653Z,18.29
2018-07-19T23:05:38.657Z,18.26
2018-07-19T23:08:05.676Z,18.25
2018-07-19T23:10:32.689Z,18.27
2018-07-19T23:12:59.801Z,18.26
2018-07-19T23:15:27.798Z,18.26
2018-07-19T23:17:54.785Z,18.27
2018-07-19T23:20:21.753Z,18.26
2018-07-19T23:22:53.797Z,18.23
2018-07-19T23:25:20.804Z,18.22
2018-07-19T23:27:47.792Z,18.19
2018-07-19T23:30:15.065Z,18.13
2018-07-19T23:32:42.057Z,18.10
2018-07-19T23:35:09.105Z,18.07
2018-07-19T23:37:37.664Z,18.06
2018-07-19T23:40:25.346Z,18.00
2018-07-19T23:42:56.514Z,17.96
2018-07-19T23:45:29.940Z,17.93
2018-07-19T23:47:57.005Z,17.90
2018-07-19T23:50:23.995Z,17.89
2018-07-19T23:52:51.232Z,17.85
2018-07-19T23:55:18.270Z,17.82
2018-07-19T23:57:45.281Z,17.81
